Time;durP1;ratioP1;P1;durP2;ratioP2;P2;SDS_P1;SDS_P2;PMS_P1;PMS_P2;Temp;Humidity;BMP_temperature;BMP_pressure;BME280_temperature;BME280_humidity;BME280_pressure;Samples;Min_cycle;Max_cycle;Signal;HPM_P1;HPM_P2
2023/02/09 00:00:27;;;;;;;34.95;31.27;;;-2.80;99.90;;;;;;4971140;28;20057;-73
2023/02/09 00:02:54;;;;;;;35.60;29.70;;;-2.70;99.90;;;;;;4979196;28;20128;-73
2023/02/09 00:05:20;;;;;;;34.78;30.50;;;-2.60;99.90;;;;;;4974079;28;20314;-73
2023/02/09 00:07:47;;;;;;;35.30;29.92;;;-2.60;99.90;;;;;;4979108;28;20318;-74
2023/02/09 00:10:13;;;;;;;31.13;28.00;;;-2.60;99.90;;;;;;4972512;28;20053;-73
2023/02/09 00:15:25;;;;;;;32.58;29.27;;;-2.60;99.90;;;;;;4973913;28;20412;-73
2023/02/09 00:17:52;;;;;;;33.35;29.75;;;-2.50;99.90;;;;;;4980418;28;20038;-74
2023/02/09 00:20:19;;;;;;;32.60;28.98;;;-2.40;99.90;;;;;;4972425;28;20140;-73
2023/02/09 00:22:46;;;;;;;34.47;29.10;;;-2.30;99.90;;;;;;4978720;28;20588;-73
2023/02/09 00:25:12;;;;;;;32.45;28.45;;;-2.20;99.90;;;;;;4973606;28;20030;-73
2023/02/09 00:27:39;;;;;;;34.00;29.00;;;-2.30;99.90;;;;;;4976459;28;20050;-74
2023/02/09 00:30:06;;;;;;;34.03;29.40;;;-2.10;99.90;;;;;;4959163;28;20305;-73
2023/02/09 00:32:33;;;;;;;33.92;29.92;;;-2.10;99.90;;;;;;4976977;28;20317;-74
2023/02/09 00:34:59;;;;;;;61.85;34.13;;;-2.10;99.90;;;;;;4972587;28;20573;-73
2023/02/09 00:37:27;;;;;;;33.35;28.63;;;-2.10;99.90;;;;;;4951238;28;21380;-73
2023/02/09 00:39:53;;;;;;;34.47;29.90;;;-2.00;99.90;;;;;;4979793;28;20040;-71
2023/02/09 00:42:20;;;;;;;35.60;30.38;;;-2.00;99.90;;;;;;4954040;28;20296;-72
2023/02/09 00:44:47;;;;;;;34.05;30.13;;;-2.00;99.90;;;;;;4974592;28;20045;-71
2023/02/09 00:47:14;;;;;;;34.75;29.90;;;-2.10;99.90;;;;;;4943014;28;20100;-71
2023/02/09 00:49:40;;;;;;;35.72;31.65;;;-2.00;99.90;;;;;;4974499;28;20553;-71
2023/02/09 00:52:07;;;;;;;35.22;30.02;;;-2.00;99.90;;;;;;4973186;28;20046;-73
2023/02/09 00:54:36;;;;;;;32.92;28.92;;;-2.00;99.90;;;;;;4975154;28;20577;-73
2023/02/09 00:57:05;;;;;;;35.10;31.30;;;-2.00;99.90;;;;;;4977254;28;20046;-72
2023/02/09 00:59:34;;;;;;;38.47;30.80;;;-2.00;99.90;;;;;;4983962;28;20321;-73
2023/02/09 01:02:01;;;;;;;40.97;30.23;;;-2.00;99.90;;;;;;4981459;28;20041;-73
2023/02/09 01:04:28;;;;;;;36.67;29.85;;;-2.00;99.90;;;;;;4963971;28;20093;-73
2023/02/09 01:06:55;;;;;;;36.35;31.75;;;-2.00;99.90;;;;;;4982088;28;20145;-73
2023/02/09 01:09:23;;;;;;;35.70;30.88;;;-2.10;99.90;;;;;;4946882;28;20302;-73
2023/02/09 01:11:50;;;;;;;39.88;31.95;;;-2.10;99.90;;;;;;4977307;28;20049;-72
2023/02/09 01:14:17;;;;;;;34.83;31.20;;;-2.10;99.90;;;;;;4977707;28;20707;-73
2023/02/09 01:16:44;;;;;;;35.58;31.65;;;-2.10;99.90;;;;;;4982805;28;20674;-72
2023/02/09 01:19:12;;;;;;;37.58;32.40;;;-2.20;99.90;;;;;;4978943;28;20042;-71
2023/02/09 01:21:39;;;;;;;34.30;30.73;;;-2.20;99.90;;;;;;4981224;28;20525;-72
2023/02/09 01:24:06;;;;;;;35.47;31.65;;;-2.20;99.90;;;;;;4976289;28;20499;-72
2023/02/09 01:26:33;;;;;;;35.47;31.70;;;-2.20;99.90;;;;;;4979541;28;20038;-74
2023/02/09 01:29:01;;;;;;;39.55;32.65;;;-2.20;99.90;;;;;;4983249;28;20038;-74
2023/02/09 01:31:31;;;;;;;37.78;32.42;;;-2.20;99.90;;;;;;4975668;28;20446;-72
2023/02/09 01:34:00;;;;;;;41.35;32.50;;;-2.30;99.90;;;;;;4964539;28;20100;-73
2023/02/09 01:36:29;;;;;;;40.10;32.55;;;-2.30;99.90;;;;;;4973050;28;20061;-72
2023/02/09 01:38:58;;;;;;;40.67;32.65;;;-2.40;99.90;;;;;;4983828;28;20404;-73
2023/02/09 01:41:26;;;;;;;39.28;32.00;;;-2.40;99.90;;;;;;4973167;28;20049;-73
2023/02/09 01:44:15;;;;;;;42.03;32.08;;;-2.40;99.90;;;;;;4978407;28;20144;-72
2023/02/09 01:46:45;;;;;;;38.88;31.85;;;-2.40;99.90;;;;;;4953633;28;20277;-73
2023/02/09 01:49:16;;;;;;;40.28;33.00;;;-2.50;99.90;;;;;;4980016;28;20044;-72
2023/02/09 01:51:53;;;;;;;45.53;33.35;;;-2.80;99.90;;;;;;4979591;28;20045;-73
2023/02/09 01:54:22;;;;;;;40.03;32.78;;;-2.80;99.90;;;;;;4970622;28;20042;-73
2023/02/09 01:56:54;;;;;;;42.00;35.05;;;-2.90;99.90;;;;;;4977732;28;20046;-72
2023/02/09 01:59:21;;;;;;;38.97;32.75;;;-2.90;99.90;;;;;;4977960;28;20108;-71
2023/02/09 02:01:48;;;;;;;39.78;33.25;;;-2.90;99.90;;;;;;4977118;28;20068;-71
2023/02/09 02:04:15;;;;;;;36.10;32.17;;;-3.00;99.90;;;;;;4973442;28;20057;-70
2023/02/09 02:06:42;;;;;;;40.00;32.17;;;-3.10;99.90;;;;;;4990648;28;20510;-71
2023/02/09 02:09:14;;;;;;;40.25;33.58;;;-3.30;99.90;;;;;;4979617;28;20030;-71
2023/02/09 02:11:44;;;;;;;36.28;31.92;;;-3.40;99.90;;;;;;4972932;28;20033;-72
2023/02/09 02:14:44;;;;;;;42.38;34.13;;;-3.50;99.90;;;;;;4973646;28;20037;-70
2023/02/09 02:17:39;;;;;;;42.15;34.05;;;-3.40;99.90;;;;;;4940001;28;20145;-71
2023/02/09 02:20:15;;;;;;;41.65;32.47;;;-3.40;99.90;;;;;;4980265;28;20072;-70
2023/02/09 02:22:50;;;;;;;36.70;32.65;;;-3.40;99.90;;;;;;4976310;28;20164;-71
2023/02/09 02:25:41;;;;;;;40.88;33.30;;;-3.50;99.90;;;;;;4974842;28;20374;-72
2023/02/09 02:28:37;;;;;;;43.10;32.55;;;-3.50;99.90;;;;;;4978487;28;20049;-72
2023/02/09 02:31:26;;;;;;;41.78;32.15;;;-3.40;99.90;;;;;;4979077;28;20241;-69
2023/02/09 02:33:57;;;;;;;42.50;33.42;;;-3.20;99.90;;;;;;4977732;28;20295;-72
2023/02/09 02:36:32;;;;;;;42.03;33.47;;;-3.10;99.90;;;;;;4970285;28;20112;-71
2023/02/09 02:39:02;;;;;;;40.42;31.90;;;-3.00;99.90;;;;;;4983870;28;20085;-70
2023/02/09 02:42:47;;;;;;;36.65;31.90;;;-2.80;99.90;;;;;;4958222;28;20045;-71
2023/02/09 02:44:26;;;;;;;38.17;32.42;;;-2.80;99.90;;;;;;4969947;28;20068;-70
2023/02/09 02:46:58;;;;;;;40.45;32.15;;;-2.80;99.90;;;;;;4976295;28;20050;-70
2023/02/09 02:49:46;;;;;;;38.20;32.30;;;-2.90;99.90;;;;;;4975519;28;20955;-72
2023/02/09 02:52:13;;;;;;;44.50;33.22;;;-2.90;99.90;;;;;;4955478;28;20122;-70
2023/02/09 02:55:01;;;;;;;44.25;33.75;;;-3.00;99.90;;;;;;4975292;28;20061;-70
2023/02/09 02:57:32;;;;;;;40.20;32.78;;;-3.00;99.90;;;;;;4974118;28;20104;-70
2023/02/09 03:00:14;;;;;;;43.90;33.28;;;-3.10;99.90;;;;;;4981715;28;20134;-72
2023/02/09 03:02:55;;;;;;;46.58;35.13;;;-3.10;99.90;;;;;;4978349;28;20062;-72
2023/02/09 03:05:23;;;;;;;41.30;32.90;;;-3.20;99.90;;;;;;4973745;28;20042;-70
2023/02/09 03:07:50;;;;;;;42.67;33.75;;;-3.20;99.90;;;;;;4976637;28;20045;-70
2023/02/09 03:10:36;;;;;;;41.25;32.10;;;-3.30;99.90;;;;;;4976183;28;20058;-70
2023/02/09 03:13:35;;;;;;;44.10;34.35;;;-3.40;99.90;;;;;;4979841;28;20369;-72
2023/02/09 03:16:45;;;;;;;43.13;33.60;;;-3.40;99.90;;;;;;4966440;28;20233;-70
2023/02/09 03:19:38;;;;;;;42.53;34.40;;;-3.50;99.90;;;;;;4968881;28;20088;-71
2023/02/09 03:22:26;;;;;;;39.95;32.80;;;-3.40;99.90;;;;;;4976700;28;20577;-70
2023/02/09 03:25:00;;;;;;;41.63;33.33;;;-3.40;99.90;;;;;;4976868;28;20046;-72
2023/02/09 03:27:33;;;;;;;42.67;32.83;;;-3.40;99.90;;;;;;4974019;28;20050;-70
2023/02/09 03:30:03;;;;;;;45.17;32.83;;;-3.50;99.90;;;;;;4979477;28;20142;-70
2023/02/09 03:32:35;;;;;;;42.05;34.00;;;-3.50;99.90;;;;;;4976018;28;20532;-70
2023/02/09 03:35:03;;;;;;;39.60;32.45;;;-3.50;99.90;;;;;;4978663;28;20261;-71
2023/02/09 03:37:30;;;;;;;45.85;33.05;;;-3.50;99.90;;;;;;4957847;28;20060;-71
2023/02/09 03:39:56;;;;;;;47.40;34.33;;;-3.70;99.90;;;;;;4979736;28;20065;-70
2023/02/09 03:42:23;;;;;;;42.33;33.80;;;-3.80;99.90;;;;;;4973449;28;20498;-73
2023/02/09 03:44:50;;;;;;;44.72;33.67;;;-3.80;99.90;;;;;;4974225;28;20589;-74
2023/02/09 03:47:16;;;;;;;44.88;34.38;;;-3.70;99.90;;;;;;4971964;28;20673;-72
2023/02/09 03:49:44;;;;;;;46.25;33.85;;;-3.70;99.90;;;;;;4968309;28;20068;-73
2023/02/09 03:52:13;;;;;;;47.20;35.10;;;-3.80;99.90;;;;;;4972302;28;20109;-72
2023/02/09 03:54:40;;;;;;;42.70;33.72;;;-3.70;99.90;;;;;;4976365;28;20034;-73
2023/02/09 03:57:07;;;;;;;42.25;33.13;;;-3.70;99.90;;;;;;4973922;28;20699;-72
2023/02/09 03:59:36;;;;;;;44.17;32.65;;;-3.70;99.90;;;;;;4977127;28;20930;-73
2023/02/09 04:02:05;;;;;;;45.50;34.22;;;-3.70;99.90;;;;;;4976429;28;20687;-73
2023/02/09 04:04:32;;;;;;;42.05;32.83;;;-3.60;99.90;;;;;;4975787;28;20100;-72
2023/02/09 04:06:59;;;;;;;44.90;33.00;;;-3.60;99.90;;;;;;4974972;28;20334;-74
2023/02/09 04:09:27;;;;;;;40.90;33.80;;;-3.50;99.90;;;;;;4974330;28;20041;-72
2023/02/09 04:11:54;;;;;;;45.05;34.50;;;-3.50;99.90;;;;;;5084584;22;20114;-76
2023/02/09 04:14:22;;;;;;;46.47;33.75;;;-3.60;99.90;;;;;;5070122;28;20125;-75
2023/02/09 04:16:49;;;;;;;49.42;35.20;;;-3.60;99.90;;;;;;5074276;28;20089;-75
2023/02/09 04:19:16;;;;;;;53.75;35.90;;;-3.70;99.90;;;;;;5060675;28;20051;-75
2023/02/09 04:21:43;;;;;;;45.90;34.53;;;-3.80;99.90;;;;;;5070732;28;20428;-76
2023/02/09 04:24:10;;;;;;;47.95;35.10;;;-3.80;99.90;;;;;;5071650;28;20043;-75
2023/02/09 04:26:37;;;;;;;46.22;34.47;;;-3.90;99.90;;;;;;5051843;28;20036;-75
2023/02/09 04:29:04;;;;;;;55.00;38.03;;;-3.90;99.90;;;;;;5055821;28;20537;-75
2023/02/09 04:31:31;;;;;;;45.28;33.80;;;-3.90;99.90;;;;;;5064963;28;20080;-75
2023/02/09 04:33:57;;;;;;;51.60;35.20;;;-4.00;99.90;;;;;;5067963;28;20067;-75
2023/02/09 04:36:24;;;;;;;45.63;35.15;;;-4.10;99.90;;;;;;5045047;28;20051;-75
2023/02/09 04:38:51;;;;;;;50.58;35.42;;;-4.10;99.90;;;;;;5071194;28;20505;-76
2023/02/09 04:41:18;;;;;;;47.72;34.58;;;-4.10;99.90;;;;;;5065081;28;20044;-75
2023/02/09 04:43:45;;;;;;;53.42;35.13;;;-4.20;99.90;;;;;;5061774;28;20046;-75
2023/02/09 04:46:13;;;;;;;49.10;35.85;;;-4.20;99.90;;;;;;5049246;28;20040;-75
2023/02/09 04:48:42;;;;;;;47.22;34.22;;;-4.30;99.90;;;;;;5067215;28;20093;-75
2023/02/09 04:51:10;;;;;;;51.00;36.78;;;-4.50;99.90;;;;;;5062598;28;20525;-75
2023/02/09 04:53:37;;;;;;;51.60;37.80;;;-4.60;99.90;;;;;;5068646;28;20071;-76
2023/02/09 04:56:04;;;;;;;52.08;37.13;;;-4.70;99.90;;;;;;5067370;28;20440;-74
2023/02/09 05:01:23;;;;;;;51.30;37.08;;;-4.80;99.90;;;;;;5066206;28;20158;-76
2023/02/09 05:03:50;;;;;;;60.22;40.22;;;-4.80;99.90;;;;;;5049721;28;20047;-76
2023/02/09 05:06:21;;;;;;;60.17;39.10;;;-4.90;99.90;;;;;;5071016;28;20051;-74
2023/02/09 05:08:48;;;;;;;61.42;40.13;;;-5.00;99.90;;;;;;5054314;28;20048;-77
2023/02/09 05:11:15;;;;;;;56.60;37.30;;;-5.10;99.90;;;;;;5051724;28;20050;-78
2023/02/09 05:13:41;;;;;;;50.38;34.55;;;-5.10;99.90;;;;;;5068884;28;20048;-77
2023/02/09 05:16:12;;;;;;;59.30;37.50;;;-5.10;99.90;;;;;;5068611;28;20266;-77
2023/02/09 05:18:39;;;;;;;53.00;33.50;;;-5.00;99.90;;;;;;5051003;28;20040;-76
2023/02/09 05:21:06;;;;;;;49.03;34.83;;;-5.10;99.90;;;;;;5072585;28;20036;-77
2023/02/09 05:23:33;;;;;;;47.40;34.08;;;-5.10;99.90;;;;;;5051086;28;20239;-76
2023/02/09 05:26:00;;;;;;;41.83;33.15;;;-5.10;99.90;;;;;;5053612;28;20131;-75
2023/02/09 05:28:26;;;;;;;55.70;34.22;;;-5.10;99.90;;;;;;5047380;28;20537;-77
2023/02/09 05:30:53;;;;;;;47.42;33.72;;;-5.20;99.90;;;;;;5053532;28;20420;-75
2023/02/09 05:33:21;;;;;;;50.17;34.58;;;-5.20;99.90;;;;;;5070635;28;20422;-75
2023/02/09 05:35:49;;;;;;;50.53;35.00;;;-5.20;99.90;;;;;;5059037;28;20981;-75
2023/02/09 05:38:17;;;;;;;48.72;33.88;;;-5.20;99.90;;;;;;5062437;28;20131;-76
2023/02/09 05:40:43;;;;;;;50.10;34.58;;;-5.20;99.90;;;;;;5051953;28;20135;-75
2023/02/09 05:43:11;;;;;;;47.75;33.03;;;-5.20;99.90;;;;;;5052259;28;20045;-76
2023/02/09 05:45:38;;;;;;;46.30;32.20;;;-5.20;99.90;;;;;;5068586;28;20040;-74
2023/02/09 05:48:05;;;;;;;46.47;31.35;;;-5.20;99.90;;;;;;5073529;28;20137;-76
2023/02/09 05:50:34;;;;;;;50.45;33.72;;;-5.30;99.90;;;;;;5059605;28;20047;-75
2023/02/09 05:53:08;;;;;;;48.80;33.47;;;-5.40;99.90;;;;;;5066067;28;20063;-75
2023/02/09 05:55:35;;;;;;;48.75;33.88;;;-5.40;99.90;;;;;;5070686;28;20794;-75
2023/02/09 05:58:02;;;;;;;52.67;33.55;;;-5.40;99.90;;;;;;5072578;28;20126;-74
2023/02/09 06:00:29;;;;;;;54.38;33.58;;;-5.50;99.90;;;;;;5066659;28;20105;-75
2023/02/09 06:02:56;;;;;;;47.55;33.45;;;-5.50;99.90;;;;;;5072085;28;20517;-77
2023/02/09 06:05:23;;;;;;;50.97;35.90;;;-5.50;99.90;;;;;;5054392;28;20144;-74
2023/02/09 06:07:50;;;;;;;50.58;34.15;;;-5.40;99.90;;;;;;5072315;28;20119;-75
2023/02/09 06:10:17;;;;;;;56.92;35.50;;;-5.50;99.90;;;;;;5069732;28;20533;-76
2023/02/09 06:12:44;;;;;;;65.13;38.13;;;-5.60;99.90;;;;;;5062456;28;20058;-75
2023/02/09 06:15:12;;;;;;;60.45;38.05;;;-5.60;99.90;;;;;;5057855;28;20058;-76
2023/02/09 06:17:39;;;;;;;57.95;37.60;;;-5.60;99.90;;;;;;5050619;28;20068;-75
2023/02/09 06:20:06;;;;;;;53.58;36.55;;;-5.50;99.90;;;;;;5068809;28;20625;-75
2023/02/09 06:22:33;;;;;;;52.88;37.13;;;-5.40;99.90;;;;;;5067374;28;20032;-74
2023/02/09 06:24:59;;;;;;;57.13;37.33;;;-5.40;99.90;;;;;;5056229;28;20047;-75
2023/02/09 06:27:26;;;;;;;51.67;34.72;;;-5.20;99.90;;;;;;5065321;28;20130;-77
2023/02/09 06:29:53;;;;;;;62.35;35.90;;;-5.10;99.90;;;;;;5070180;28;20044;-75
2023/02/09 06:32:20;;;;;;;48.63;35.03;;;-5.00;99.90;;;;;;5068661;28;20074;-75
2023/02/09 06:34:46;;;;;;;53.67;34.80;;;-5.10;99.90;;;;;;5073282;28;20040;-76
2023/02/09 06:37:13;;;;;;;54.00;36.00;;;-5.10;99.90;;;;;;5049144;28;20460;-75
2023/02/09 06:39:41;;;;;;;65.13;41.22;;;-5.20;99.90;;;;;;5051074;28;20148;-76
2023/02/09 06:42:08;;;;;;;69.03;43.53;;;-5.30;99.90;;;;;;5048123;28;20468;-76
2023/02/09 06:44:34;;;;;;;74.55;48.28;;;-5.40;99.90;;;;;;5051603;28;20367;-75
2023/02/09 06:47:01;;;;;;;74.15;42.92;;;-5.40;99.90;;;;;;5065474;28;20444;-76
2023/02/09 06:49:28;;;;;;;75.38;42.67;;;-5.50;99.90;;;;;;5062641;28;20033;-74
2023/02/09 06:51:55;;;;;;;65.55;42.05;;;-5.40;99.90;;;;;;5065839;28;20052;-74
2023/02/09 06:54:22;;;;;;;77.65;44.97;;;-5.30;99.90;;;;;;5063259;28;20047;-75
2023/02/09 06:56:49;;;;;;;77.30;47.67;;;-5.40;99.90;;;;;;5044239;28;20404;-74
2023/02/09 06:59:15;;;;;;;75.10;48.50;;;-5.40;99.90;;;;;;5052340;28;20132;-75
2023/02/09 07:01:42;;;;;;;80.82;46.50;;;-5.40;99.90;;;;;;5057976;28;20149;-77
2023/02/09 07:04:09;;;;;;;65.10;44.33;;;-5.20;99.90;;;;;;5051089;28;20352;-75
2023/02/09 07:06:35;;;;;;;65.65;42.55;;;-5.00;99.90;;;;;;5064916;28;20681;-76
2023/02/09 07:09:02;;;;;;;65.15;44.40;;;-5.00;99.90;;;;;;5032240;22;20037;-72
2023/02/09 07:11:29;;;;;;;65.40;41.35;;;-5.00;99.90;;;;;;4999898;28;20132;-71
2023/02/09 07:13:56;;;;;;;55.03;40.25;;;-5.10;99.90;;;;;;5006163;28;20037;-71
2023/02/09 07:16:23;;;;;;;60.75;38.25;;;-5.10;99.90;;;;;;5006217;28;20065;-71
2023/02/09 07:18:49;;;;;;;65.38;39.97;;;-5.00;99.90;;;;;;5009862;28;20038;-71
2023/02/09 07:21:18;;;;;;;58.55;37.80;;;-5.20;99.90;;;;;;4994627;28;20049;-69
2023/02/09 07:23:46;;;;;;;52.03;37.65;;;-5.10;99.90;;;;;;5000585;28;20141;-69
2023/02/09 07:26:15;;;;;;;51.15;35.78;;;-5.10;99.90;;;;;;5000960;28;20045;-71
2023/02/09 07:28:42;;;;;;;55.78;37.90;;;-5.10;99.90;;;;;;5006223;28;20144;-69
2023/02/09 07:31:11;;;;;;;53.28;37.30;;;-5.10;99.90;;;;;;5001441;28;20041;-70
2023/02/09 07:33:38;;;;;;;57.22;40.15;;;-5.00;99.90;;;;;;5005116;28;21588;-70
2023/02/09 07:36:08;;;;;;;66.95;41.80;;;-5.00;99.90;;;;;;4999362;28;20045;-70
2023/02/09 07:38:35;;;;;;;64.97;44.97;;;-5.00;99.90;;;;;;5003267;28;20625;-71
2023/02/09 07:41:04;;;;;;;61.92;41.80;;;-4.90;99.90;;;;;;5004966;28;20033;-70
2023/02/09 07:43:31;;;;;;;58.40;40.85;;;-4.80;99.90;;;;;;4995653;28;20801;-70
2023/02/09 07:46:05;;;;;;;56.25;39.10;;;-4.70;99.90;;;;;;5010219;28;20068;-70
2023/02/09 07:48:33;;;;;;;57.20;39.72;;;-4.60;99.90;;;;;;5001343;28;20041;-70
2023/02/09 07:50:59;;;;;;;54.08;39.78;;;-4.40;99.90;;;;;;5005051;28;20053;-72
2023/02/09 07:53:27;;;;;;;60.22;39.75;;;-4.30;99.90;;;;;;4999099;28;20398;-71
2023/02/09 07:55:54;;;;;;;48.80;36.55;;;-4.20;99.90;;;;;;5003048;28;20116;-70
2023/02/09 07:58:21;;;;;;;54.65;37.97;;;-4.10;99.90;;;;;;5005018;28;20048;-70
2023/02/09 08:00:49;;;;;;;54.25;40.40;;;-4.00;99.90;;;;;;5005992;28;20049;-70
2023/02/09 08:03:19;;;;;;;48.92;39.45;;;-3.80;99.90;;;;;;5006285;28;20045;-70
2023/02/09 08:05:51;;;;;;;57.22;40.53;;;-3.70;99.90;;;;;;5005458;28;20068;-71
2023/02/09 08:08:18;;;;;;;51.03;39.38;;;-3.60;99.90;;;;;;5004118;28;20127;-73
2023/02/09 08:10:45;;;;;;;53.75;39.55;;;-3.40;99.90;;;;;;4986194;28;20128;-72
2023/02/09 08:13:13;;;;;;;52.42;39.67;;;-3.30;99.90;;;;;;4998575;28;20049;-70
2023/02/09 08:15:49;;;;;;;53.45;40.42;;;-3.20;99.90;;;;;;4996151;28;20099;-71
2023/02/09 08:18:20;;;;;;;56.30;39.67;;;-3.10;99.90;;;;;;5001253;28;20490;-69
2023/02/09 08:20:47;;;;;;;48.50;38.83;;;-3.00;99.90;;;;;;4995174;28;20061;-71
2023/02/09 08:23:21;;;;;;;54.08;41.38;;;-2.80;99.90;;;;;;4999153;28;20045;-70
2023/02/09 08:25:50;;;;;;;51.17;41.33;;;-2.70;99.90;;;;;;5004100;28;20080;-72
2023/02/09 08:28:18;;;;;;;52.38;43.05;;;-2.50;99.90;;;;;;5006808;28;20407;-71
2023/02/09 08:30:47;;;;;;;54.22;42.67;;;-2.40;99.90;;;;;;5003279;28;20072;-70
2023/02/09 08:33:15;;;;;;;50.03;41.90;;;-2.20;99.90;;;;;;5012570;28;20128;-70
2023/02/09 08:35:42;;;;;;;55.80;42.10;;;-2.00;99.90;;;;;;5012041;28;20069;-70
2023/02/09 08:38:10;;;;;;;54.10;43.33;;;-1.70;99.90;;;;;;5006134;28;20041;-70
2023/02/09 08:40:42;;;;;;;52.85;44.40;;;-1.40;99.90;;;;;;4990302;28;20133;-71
2023/02/09 08:43:11;;;;;;;55.08;44.47;;;-1.20;99.90;;;;;;5003262;28;20055;-70
2023/02/09 08:45:40;;;;;;;50.92;43.08;;;-0.90;99.90;;;;;;4998576;28;21234;-70
2023/02/09 08:48:10;;;;;;;50.00;43.38;;;-0.50;99.90;;;;;;5004864;28;20592;-71
2023/02/09 08:50:38;;;;;;;46.08;41.40;;;-0.20;99.90;;;;;;5006261;28;20041;-72
2023/02/09 08:53:06;;;;;;;52.80;43.78;;;0.00;99.90;;;;;;5004904;28;20695;-70
2023/02/09 08:55:36;;;;;;;47.90;42.42;;;0.10;99.90;;;;;;4999789;28;20045;-72
2023/02/09 08:58:03;;;;;;;50.30;42.85;;;0.20;99.90;;;;;;5003961;28;20072;-72
2023/02/09 09:00:31;;;;;;;47.35;42.40;;;0.40;99.90;;;;;;5000452;28;20057;-74
2023/02/09 09:02:57;;;;;;;51.95;46.35;;;0.50;99.90;;;;;;4999485;28;20075;-72
2023/02/09 09:05:24;;;;;;;51.03;43.95;;;0.60;99.90;;;;;;5008391;28;20069;-70
2023/02/09 09:07:51;;;;;;;52.85;44.63;;;0.80;99.90;;;;;;5009774;28;20625;-71
2023/02/09 09:10:17;;;;;;;50.00;44.58;;;1.10;99.90;;;;;;5005708;28;20675;-72
2023/02/09 09:12:44;;;;;;;47.42;42.53;;;1.40;99.90;;;;;;5007308;28;20112;-72
2023/02/09 09:15:11;;;;;;;48.72;43.63;;;1.60;99.90;;;;;;4999724;28;20556;-70
2023/02/09 09:17:38;;;;;;;46.63;41.92;;;1.70;99.90;;;;;;5003153;28;20041;-70
2023/02/09 09:20:05;;;;;;;45.95;41.13;;;1.80;99.90;;;;;;5009209;28;20037;-71
2023/02/09 09:22:32;;;;;;;47.88;41.78;;;1.80;99.90;;;;;;5003857;28;20087;-72
2023/02/09 09:24:59;;;;;;;46.90;41.92;;;1.90;99.90;;;;;;5004903;28;20041;-71
2023/02/09 09:27:27;;;;;;;44.33;39.88;;;2.20;99.90;;;;;;5006509;28;20052;-73
2023/02/09 09:29:54;;;;;;;46.22;41.63;;;2.20;99.90;;;;;;5009001;28;20397;-72
2023/02/09 09:32:23;;;;;;;49.45;42.38;;;2.30;99.90;;;;;;5010438;28;20077;-72
2023/02/09 09:34:56;;;;;;;46.40;41.78;;;2.40;99.90;;;;;;5018088;28;20059;-72
2023/02/09 09:37:24;;;;;;;46.55;41.70;;;2.30;99.90;;;;;;5011306;28;20156;-72
2023/02/09 09:39:51;;;;;;;46.95;41.97;;;2.10;99.90;;;;;;5014397;28;20255;-73
2023/02/09 09:42:26;;;;;;;46.05;41.40;;;2.10;99.90;;;;;;5010722;28;20384;-75
2023/02/09 09:44:53;;;;;;;;;;;1.90;99.90;;;;;;5015435;28;20041;-70
2023/02/09 09:47:25;;;;;;;;;;;1.90;99.90;;;;;;4995770;28;19935;-71
2023/02/09 09:49:51;;;;;;;;;;;2.00;99.90;;;;;;5020532;28;19996;-72
2023/02/09 09:52:37;;;;;;;;;;;2.10;99.90;;;;;;5012888;28;20405;-72
2023/02/09 09:55:10;;;;;;;;;;;2.20;99.90;;;;;;5008851;28;20378;-72
2023/02/09 09:57:40;;;;;;;;;;;2.50;99.90;;;;;;5012553;28;19935;-72
2023/02/09 10:00:21;;;;;;;;;;;2.80;99.90;;;;;;5007025;28;19925;-72
2023/02/09 10:02:48;;;;;;;;;;;3.00;99.90;;;;;;5021599;28;19959;-72
2023/02/09 10:05:27;;;;;;;;;;;3.10;99.90;;;;;;5017497;28;19925;-73
2023/02/09 10:07:57;;;;;;;;;;;3.30;99.90;;;;;;5010273;28;20020;-73
2023/02/09 10:10:26;;;;;;;;;;;3.30;99.90;;;;;;4998653;22;19929;-74
2023/02/09 10:12:53;;;;;;;;;;;3.30;99.90;;;;;;5009824;28;19948;-74
2023/02/09 10:15:27;;;;;;;;;;;3.40;99.90;;;;;;5001186;28;19921;-73
2023/02/09 10:17:54;;;;;;;;;;;3.40;99.90;;;;;;5004688;28;19921;-73
2023/02/09 10:20:40;;;;;;;;;;;3.40;99.90;;;;;;4990056;28;20016;-72
2023/02/09 10:23:24;;;;;;;;;;;3.50;99.90;;;;;;4992798;28;19921;-74
2023/02/09 10:25:53;;;;;;;;;;;3.70;99.90;;;;;;4990746;28;19979;-75
2023/02/09 10:28:22;;;;;;;;;;;3.70;99.90;;;;;;4979978;28;19921;-75
2023/02/09 10:30:53;;;;;;;;;;;3.70;99.90;;;;;;4972778;28;19928;-74
2023/02/09 10:33:19;;;;;;;;;;;3.60;99.90;;;;;;4987425;28;20020;-74
2023/02/09 10:35:50;;;;;;;;;;;3.70;99.90;;;;;;4981919;28;19964;-75
2023/02/09 10:38:21;;;;;;;;;;;3.80;99.90;;;;;;4993547;28;19956;-75
2023/02/09 10:40:48;;;;;;;;;;;3.90;99.90;;;;;;4992931;28;19925;-75
2023/02/09 10:43:19;;;;;;;;;;;3.90;99.90;;;;;;4979182;28;19922;-75
2023/02/09 10:45:46;;;;;;;;;;;4.00;99.90;;;;;;4985337;28;19932;-75
2023/02/09 10:48:17;;;;;;;;;;;4.00;99.90;;;;;;4983201;28;19979;-73
2023/02/09 10:50:56;;;;;;;;;;;4.10;99.90;;;;;;4967545;28;20414;-75
2023/02/09 10:53:25;;;;;;;;;;;4.10;99.90;;;;;;4988861;28;19932;-73
2023/02/09 10:55:58;;;;;;;;;;;4.20;99.90;;;;;;4989902;28;19928;-74
2023/02/09 10:58:26;;;;;;;;;;;4.30;99.90;;;;;;4985662;28;19967;-75
2023/02/09 11:01:05;;;;;;;;;;;4.40;99.90;;;;;;4985575;28;19928;-75
2023/02/09 11:03:32;;;;;;;;;;;4.60;99.90;;;;;;4982912;28;19932;-75
2023/02/09 11:05:59;;;;;;;;;;;4.50;99.90;;;;;;4976509;28;19952;-75
2023/02/09 11:08:36;;;;;;;;;;;4.30;99.90;;;;;;4985173;28;19922;-75
2023/02/09 11:11:06;;;;;;;;;;;4.40;99.90;;;;;;4967847;28;20410;-75
2023/02/09 11:13:33;;;;;;;;;;;4.40;99.90;;;;;;4988731;28;19944;-73
2023/02/09 11:16:18;;;;;;;;;;;4.50;99.90;;;;;;4987968;28;19922;-73
2023/02/09 11:18:50;;;;;;;;;;;4.50;99.90;;;;;;4988549;28;20049;-73
2023/02/09 11:21:25;;;;;;;;;;;4.30;99.90;;;;;;4981838;28;20154;-74
2023/02/09 11:24:28;;;;;;;;;;;4.30;99.90;;;;;;4995523;28;19921;-73
2023/02/09 11:27:05;;;;;;;;;;;4.40;99.90;;;;;;4902536;29;20214;-73
2023/02/09 11:29:39;;;;;;;;;;;4.20;99.90;;;;;;4973018;28;20441;-74
2023/02/09 11:32:06;;;;;;;;;;;4.10;99.90;;;;;;4984798;28;19929;-73
2023/02/09 11:34:38;;;;;;;;;;;4.10;99.90;;;;;;4978460;28;20017;-73
2023/02/09 11:40:43;;;;;;;;;;;4.40;99.90;;;;;;4981883;28;20294;-73
2023/02/09 11:43:29;;;;;;;;;;;4.50;99.90;;;;;;4983624;28;20210;-74
2023/02/09 11:46:01;;;;;;;;;;;4.40;99.90;;;;;;4984662;28;19921;-74
2023/02/09 11:48:39;;;;;;;;;;;4.40;99.90;;;;;;4984485;28;19937;-74
2023/02/09 11:51:08;;;;;;;;;;;4.40;99.90;;;;;;4983341;28;19930;-74
2023/02/09 11:53:43;;;;;;;;;;;4.70;99.90;;;;;;4986479;28;19925;-74
2023/02/09 11:56:13;;;;;;;;;;;4.60;99.90;;;;;;4986419;28;19921;-74
2023/02/09 11:58:55;;;;;;;;;;;4.50;99.90;;;;;;4986266;28;19933;-73
2023/02/09 12:01:28;;;;;;;;;;;4.70;99.90;;;;;;4988058;28;19936;-74
2023/02/09 12:04:02;;;;;;;;;;;4.60;99.90;;;;;;4985691;28;20388;-73
2023/02/09 12:06:32;;;;;;;;;;;4.70;99.90;;;;;;4984993;28;20302;-74
2023/02/09 12:09:07;;;;;;;;;;;4.90;99.90;;;;;;4982993;28;20433;-74
2023/02/09 12:11:49;;;;;;;;;;;4.80;99.90;;;;;;4976470;28;19922;-74
2023/02/09 12:14:19;;;;;;;;;;;4.90;99.90;;;;;;4977186;28;19980;-73
2023/02/09 12:16:49;;;;;;;;;;;5.00;99.90;;;;;;4979386;28;19925;-74
2023/02/09 12:19:36;;;;;;;;;;;5.00;99.90;;;;;;4982967;28;19936;-74
2023/02/09 12:22:21;;;;;;;;;;;5.10;99.90;;;;;;4981330;28;19964;-73
2023/02/09 12:25:07;;;;;;;;;;;5.00;99.90;;;;;;4982252;28;19925;-72
2023/02/09 12:27:36;;;;;;;;;;;5.10;99.90;;;;;;4986076;28;19936;-73
2023/02/09 12:30:23;;;;;;;;;;;5.10;99.90;;;;;;4971027;28;20001;-72
2023/02/09 12:32:49;;;;;;;;;;;5.10;99.90;;;;;;4967903;28;19921;-73
2023/02/09 12:35:35;;;;;;;;;;;4.90;99.90;;;;;;4979343;28;19932;-73
2023/02/09 12:38:07;;;;;;;;;;;5.00;99.90;;;;;;4971476;28;19999;-73
2023/02/09 12:40:35;;;;;;;;;;;5.20;99.90;;;;;;4990235;28;19976;-72
2023/02/09 12:43:08;;;;;;;;;;;5.10;99.90;;;;;;4980985;28;19925;-73
2023/02/09 12:45:38;;;;;;;;;;;5.10;99.90;;;;;;4979162;28;19925;-72
2023/02/09 12:48:08;;;;;;;;;;;5.10;99.90;;;;;;4982674;28;19925;-75
2023/02/09 12:50:40;;;;;;;;;;;5.10;99.90;;;;;;4993565;28;20610;-72
2023/02/09 12:53:23;;;;;;;;;;;5.10;99.90;;;;;;4989185;28;20689;-74
2023/02/09 12:55:56;;;;;;;;;;;5.20;99.90;;;;;;4979016;28;20058;-74
2023/02/09 12:58:38;;;;;;;;;;;5.20;99.90;;;;;;4980976;28;19922;-74
2023/02/09 13:01:05;;;;;;;;;;;5.20;99.90;;;;;;4989249;28;19976;-71
2023/02/09 13:03:38;;;;;;;;;;;5.30;99.90;;;;;;4963731;28;19926;-72
2023/02/09 13:06:07;;;;;;;;;;;5.40;99.90;;;;;;4993528;28;19988;-74
2023/02/09 13:08:36;;;;;;;;;;;5.40;99.90;;;;;;5029803;22;20408;-71
2023/02/09 13:11:04;;;;;;;;;;;5.40;99.90;;;;;;5052125;28;20414;-69
2023/02/09 13:13:32;;;;;;;;;;;5.40;99.90;;;;;;5049848;28;19924;-69
2023/02/09 13:16:04;;;;;;;;;;;5.30;99.90;;;;;;5049548;28;19928;-70
2023/02/09 13:18:47;;;;;;;;;;;5.30;99.90;;;;;;5053863;28;19928;-71
2023/02/09 13:21:19;;;;;;;;;;;5.20;99.90;;;;;;5045067;28;20381;-69
2023/02/09 13:24:03;;;;;;;;;;;5.20;99.90;;;;;;5050998;28;19959;-69